Aeroporto :
LOGIN :

Iscrizione | Disclaimer

   EN    FR    IT 

 










Sommario :    VFR   VFR Marginale   IFR   IFR Intensivo   IFR Molto Intensivo
Visibilità : 
Base nubi : 
>= 8 km
>= 3000ft
5 / 8 km
1000 / 3000 ft
1500m / 5 km
500 / 1000 ft
800 / 1500m
200 / 500 ft
< 800m
< 200 ft
Simboli :   Temporali  Nebbia  Neve Forte  Precipitazioni Forti  Vento > 20 kt
SIGMETs :   Varie  Temporali  Ghiacco  Turbolenza  Onda orograficha  Ceneri Vulcaniche






- Altitudine del aeroporto : 340 ft
- Codice IATA : BZI


LTBF - Balikesir

ULTIMO METAR :
  • 210550Z 01014KT 9999 -SHRA SCT015 SCT035 BKN100 07/04 Q1015 NOSIG

METARs OBSOLETI :
  • 210450Z 36011KT 9999 FEW015 SCT035 BKN100 07/05 Q1014 NOSIG
  • 210350Z 35012KT 9999 SCT035 BKN100 07/05 Q1014 NOSIG

TAF COR TAF LTBF
Valido dal 21 a 06 ore il 21 a 15 ore UTC


210440Z 2106/2115 01012KT 9999 -SHRA FEW015 SCT035 BKN10



MetMap, La meteo Aeronautica in un colpo d'occhio ! - Copyright ORBIFLY Dicembre 2007 - Disclaimer

ORBIFLY MET'MAP TEAM :

Programmazione e sviluppo : Alexandra Zaïnal
Concezione : Baudouin d'Aumeries
Aiuto per la programmazione : Marc-Olivier Méhu
Supporto tecnico e logistico : Manuel Goepfert
Aiuto per la traduzione : Arnaldo La Scala

Contatto : metmap@orbifly.com




FONTI E CREDITI :

   NOAA